createdAt,value
2022-12-25T00:00:01.074Z,218
2022-12-25T00:00:33.503Z,238
2022-12-25T00:01:04.460Z,234
2022-12-25T00:01:34.775Z,304
2022-12-25T00:01:52.410Z,296
2022-12-25T00:02:24.403Z,281
2022-12-25T00:02:42.368Z,281
2022-12-25T00:03:12.517Z,146
2022-12-25T00:03:34.155Z,298
2022-12-25T00:04:00.488Z,209
2022-12-25T00:04:32.413Z,253
2022-12-25T00:05:05.288Z,124
2022-12-25T00:05:34.459Z,129
2022-12-25T00:05:52.452Z,290
2022-12-25T00:06:24.368Z,247
2022-12-25T00:06:41.525Z,281
2022-12-25T00:07:12.998Z,262
2022-12-25T00:07:34.383Z,278
2022-12-25T00:08:00.292Z,281
2022-12-25T00:08:32.461Z,317
2022-12-25T00:09:04.409Z,272
2022-12-25T00:09:33.957Z,275
2022-12-25T00:09:52.347Z,268
2022-12-25T00:10:25.242Z,310
2022-12-25T00:10:45.345Z,235
2022-12-25T00:11:12.399Z,262
2022-12-25T00:11:34.060Z,287
2022-12-25T00:12:00.310Z,240
2022-12-25T00:12:33.169Z,194
2022-12-25T00:13:04.439Z,289
2022-12-25T00:13:34.755Z,288
2022-12-25T00:13:52.345Z,267
2022-12-25T00:14:24.429Z,285
2022-12-25T00:14:57.800Z,247
2022-12-25T00:15:28.768Z,254
2022-12-25T00:16:01.377Z,262
2022-12-25T00:16:32.564Z,232
2022-12-25T00:17:05.011Z,258
2022-12-25T00:17:33.920Z,259
2022-12-25T00:17:52.348Z,256
2022-12-25T00:18:25.267Z,289
2022-12-25T00:18:41.693Z,288
2022-12-25T00:19:13.137Z,306
2022-12-25T00:19:34.160Z,229
2022-12-25T00:20:00.428Z,233
2022-12-25T00:20:32.435Z,233
2022-12-25T00:21:04.454Z,233
2022-12-25T00:21:38.469Z,233
2022-12-25T00:22:08.451Z,277
2022-12-25T00:22:33.903Z,271
2022-12-25T00:22:56.413Z,267
2022-12-25T00:23:29.273Z,223
2022-12-25T00:24:00.364Z,225
2022-12-25T00:24:33.098Z,301
2022-12-25T00:25:04.451Z,236
2022-12-25T00:25:34.932Z,254
2022-12-25T00:25:52.511Z,279
2022-12-25T00:26:24.387Z,199
2022-12-25T00:26:42.147Z,194
2022-12-25T00:27:12.406Z,191
2022-12-25T00:27:34.086Z,191
2022-12-25T00:28:00.341Z,305
2022-12-25T00:28:32.423Z,239
2022-12-25T00:29:05.121Z,265
2022-12-25T00:29:34.094Z,287
2022-12-25T00:29:52.378Z,294
2022-12-25T00:30:24.655Z,262
2022-12-25T00:30:41.522Z,266
2022-12-25T00:31:13.285Z,256
2022-12-25T00:31:34.646Z,247
2022-12-25T00:32:00.498Z,235
2022-12-25T00:32:32.476Z,286
2022-12-25T00:33:04.327Z,300
2022-12-25T00:33:34.174Z,294
2022-12-25T00:33:52.427Z,268
2022-12-25T00:34:25.202Z,274
2022-12-25T00:34:41.825Z,280
2022-12-25T00:35:12.464Z,290
2022-12-25T00:35:33.955Z,274
2022-12-25T00:36:00.486Z,252
2022-12-25T00:36:37.866Z,260
2022-12-25T00:37:04.303Z,254
2022-12-25T00:37:36.507Z,224
2022-12-25T00:38:08.375Z,274
2022-12-25T00:38:33.807Z,274
2022-12-25T00:38:56.295Z,274
2022-12-25T00:39:28.606Z,285
2022-12-25T00:40:01.474Z,247
2022-12-25T00:40:32.351Z,299
2022-12-25T00:41:05.267Z,293
2022-12-25T00:41:34.098Z,288
2022-12-25T00:41:52.488Z,283
2022-12-25T00:42:24.342Z,276
2022-12-25T00:42:41.440Z,289
2022-12-25T00:43:13.271Z,291
2022-12-25T00:43:34.042Z,291
2022-12-25T00:44:00.509Z,291
2022-12-25T00:44:32.330Z,291
2022-12-25T00:45:04.607Z,272
2022-12-25T00:45:34.926Z,263
2022-12-25T00:45:52.599Z,224
2022-12-25T00:46:25.186Z,299
2022-12-25T00:46:42.028Z,318
2022-12-25T00:47:12.525Z,247
2022-12-25T00:47:34.046Z,269
2022-12-25T00:48:00.555Z,268
2022-12-25T00:48:33.286Z,246
2022-12-25T00:49:04.415Z,237
2022-12-25T00:49:35.163Z,222
2022-12-25T00:49:52.430Z,251
2022-12-25T00:50:24.456Z,249
2022-12-25T00:50:42.420Z,275
2022-12-25T00:51:12.422Z,275
2022-12-25T00:51:34.069Z,307
2022-12-25T00:52:00.418Z,305
2022-12-25T00:52:32.332Z,304
2022-12-25T00:53:05.274Z,302
2022-12-25T00:53:34.138Z,274
2022-12-25T00:53:52.440Z,288
2022-12-25T00:54:24.296Z,288
2022-12-25T00:54:41.412Z,286
2022-12-25T00:55:13.541Z,244
2022-12-25T00:55:34.047Z,247
2022-12-25T00:56:00.393Z,269
2022-12-25T00:56:32.312Z,269
2022-12-25T00:57:04.381Z,291
2022-12-25T00:57:34.123Z,291
2022-12-25T00:57:52.450Z,288
2022-12-25T00:58:25.301Z,277
2022-12-25T00:58:41.883Z,274
2022-12-25T00:59:12.394Z,260
2022-12-25T00:59:34.125Z,279
2022-12-25T01:00:00.752Z,283
2022-12-25T01:00:49.849Z,286
2022-12-25T01:01:20.627Z,299
2022-12-25T01:01:37.624Z,264
2022-12-25T01:02:08.503Z,263
2022-12-25T01:02:34.076Z,261
2022-12-25T01:02:57.278Z,278
2022-12-25T01:03:28.770Z,286
2022-12-25T01:04:01.037Z,205
2022-12-25T01:04:32.335Z,207
2022-12-25T01:05:05.372Z,208
2022-12-25T01:05:34.023Z,239
2022-12-25T01:05:52.483Z,279
2022-12-25T01:06:24.406Z,285
2022-12-25T01:06:41.473Z,285
2022-12-25T01:07:12.888Z,289
2022-12-25T01:07:34.606Z,289
2022-12-25T01:08:00.331Z,289
2022-12-25T01:08:32.399Z,225
2022-12-25T01:09:04.360Z,226
2022-12-25T01:09:33.995Z,223
2022-12-25T01:09:52.301Z,198
2022-12-25T01:10:25.353Z,233
2022-12-25T01:10:57.489Z,272
2022-12-25T01:11:29.273Z,279
2022-12-25T01:12:00.342Z,241
2022-12-25T01:12:33.124Z,274
2022-12-25T01:13:04.432Z,258
2022-12-25T01:13:35.871Z,281
2022-12-25T01:13:52.210Z,281
2022-12-25T01:14:24.441Z,281
2022-12-25T01:14:42.319Z,208
2022-12-25T01:15:12.587Z,217
2022-12-25T01:15:34.689Z,218
2022-12-25T01:16:00.426Z,217
2022-12-25T01:16:32.534Z,217
2022-12-25T01:17:05.055Z,217
2022-12-25T01:17:34.052Z,217
2022-12-25T01:17:52.302Z,217
2022-12-25T01:18:24.422Z,217
2022-12-25T01:18:41.534Z,217
2022-12-25T01:19:13.074Z,217
2022-12-25T01:19:34.066Z,230
2022-12-25T01:20:00.730Z,238
2022-12-25T01:20:32.416Z,274
2022-12-25T01:21:04.400Z,289
2022-12-25T01:21:34.050Z,289
2022-12-25T01:21:52.408Z,289
2022-12-25T01:22:24.994Z,289
2022-12-25T01:22:42.037Z,289
2022-12-25T01:23:12.617Z,285
2022-12-25T01:23:34.085Z,233
2022-12-25T01:24:00.418Z,233
2022-12-25T01:24:32.941Z,233
2022-12-25T01:25:04.463Z,233
2022-12-25T01:25:35.205Z,233
2022-12-25T01:25:52.528Z,233
2022-12-25T01:26:24.385Z,246
2022-12-25T01:26:42.657Z,241
2022-12-25T01:27:12.435Z,249
2022-12-25T01:27:33.975Z,253
2022-12-25T01:28:00.439Z,241
2022-12-25T01:28:32.394Z,242
2022-12-25T01:29:05.087Z,289
2022-12-25T01:29:34.137Z,289
2022-12-25T01:29:52.506Z,307
2022-12-25T01:30:24.578Z,285
2022-12-25T01:30:41.397Z,285
2022-12-25T01:31:13.127Z,269
2022-12-25T01:31:34.724Z,269
2022-12-25T01:32:00.550Z,280
2022-12-25T01:32:32.283Z,280
2022-12-25T01:33:04.359Z,280
2022-12-25T01:33:34.656Z,280
2022-12-25T01:33:52.438Z,280
2022-12-25T01:34:25.179Z,275
2022-12-25T01:34:42.050Z,276
2022-12-25T01:35:12.577Z,285
2022-12-25T01:35:34.178Z,285
2022-12-25T01:36:00.262Z,285
2022-12-25T01:36:33.059Z,285
2022-12-25T01:37:04.400Z,285
2022-12-25T01:37:34.808Z,285
2022-12-25T01:37:52.325Z,285
2022-12-25T01:38:24.381Z,285
2022-12-25T01:38:42.207Z,285
2022-12-25T01:39:12.416Z,284
2022-12-25T01:39:34.151Z,284
2022-12-25T01:40:00.432Z,288
2022-12-25T01:40:32.473Z,288
2022-12-25T01:41:05.009Z,288
2022-12-25T01:41:34.009Z,288
2022-12-25T01:41:52.335Z,288
2022-12-25T01:42:24.466Z,288
2022-12-25T01:42:41.514Z,288
2022-12-25T01:43:17.044Z,288
2022-12-25T01:43:34.830Z,288
2022-12-25T01:44:00.441Z,288
2022-12-25T01:44:32.446Z,288
2022-12-25T01:45:04.557Z,288
2022-12-25T01:45:34.224Z,288
2022-12-25T01:45:52.687Z,288
2022-12-25T01:46:25.113Z,288
2022-12-25T01:46:56.386Z,288
2022-12-25T01:47:29.234Z,288
2022-12-25T01:48:00.612Z,288
2022-12-25T01:48:33.168Z,288
2022-12-25T01:49:04.382Z,288
2022-12-25T01:49:35.272Z,288
2022-12-25T01:49:52.453Z,266
2022-12-25T01:50:24.605Z,250
2022-12-25T01:50:42.121Z,250
2022-12-25T01:51:12.286Z,250
2022-12-25T01:51:33.996Z,250
2022-12-25T01:52:00.408Z,250
2022-12-25T01:52:32.436Z,250
2022-12-25T01:53:05.062Z,250
2022-12-25T01:53:34.149Z,250
2022-12-25T01:53:52.400Z,250
2022-12-25T01:54:24.417Z,250
2022-12-25T01:54:41.547Z,250
2022-12-25T01:55:13.196Z,250
2022-12-25T01:55:33.972Z,250
2022-12-25T01:56:00.469Z,250
2022-12-25T01:56:32.495Z,250
2022-12-25T01:57:04.296Z,250
2022-12-25T01:57:34.044Z,250
2022-12-25T01:57:52.428Z,250
2022-12-25T01:58:25.778Z,250
2022-12-25T01:58:56.279Z,250
2022-12-25T01:59:29.345Z,250
2022-12-25T02:00:00.839Z,250
2022-12-25T02:00:33.042Z,250
2022-12-25T02:01:04.373Z,250
2022-12-25T02:01:34.947Z,250
2022-12-25T02:01:52.672Z,250
2022-12-25T02:02:24.604Z,250
2022-12-25T02:02:42.411Z,250
2022-12-25T02:03:12.412Z,250
2022-12-25T02:03:33.972Z,250
2022-12-25T02:04:01.181Z,250
2022-12-25T02:04:32.443Z,250
2022-12-25T02:05:05.293Z,250
2022-12-25T02:05:34.093Z,250
2022-12-25T02:05:52.606Z,250
2022-12-25T02:06:24.321Z,250
2022-12-25T02:06:41.495Z,250
2022-12-25T02:07:13.140Z,250
2022-12-25T02:07:33.964Z,250
2022-12-25T02:08:00.444Z,250
2022-12-25T02:08:32.440Z,250
2022-12-25T02:09:04.355Z,250
2022-12-25T02:09:34.521Z,250
2022-12-25T02:09:52.394Z,250
2022-12-25T02:10:25.201Z,250
2022-12-25T02:10:42.094Z,250
2022-12-25T02:11:12.308Z,250
2022-12-25T02:11:33.985Z,250
2022-12-25T02:12:00.518Z,250
2022-12-25T02:12:33.097Z,250
2022-12-25T02:13:04.405Z,250
2022-12-25T02:13:34.721Z,250
2022-12-25T02:13:52.392Z,250
2022-12-25T02:14:24.402Z,250
2022-12-25T02:14:42.154Z,250
2022-12-25T02:15:12.639Z,250
2022-12-25T02:15:34.887Z,250
2022-12-25T02:16:00.425Z,250
2022-12-25T02:16:32.432Z,250
2022-12-25T02:17:05.102Z,250
2022-12-25T02:17:34.265Z,250
2022-12-25T02:17:52.457Z,250
2022-12-25T02:18:24.294Z,250
2022-12-25T02:18:52.417Z,250
2022-12-25T02:19:13.023Z,250
2022-12-25T02:19:33.939Z,250
2022-12-25T02:20:05.595Z,250
2022-12-25T02:20:32.310Z,250
2022-12-25T02:21:04.333Z,250
2022-12-25T02:21:34.850Z,250
2022-12-25T02:21:52.385Z,250
2022-12-25T02:22:24.317Z,250
2022-12-25T02:22:42.211Z,250
2022-12-25T02:23:12.471Z,250
2022-12-25T02:23:34.022Z,250
2022-12-25T02:24:00.434Z,250
2022-12-25T02:24:32.338Z,250
2022-12-25T02:25:05.362Z,250
2022-12-25T02:25:33.991Z,250
2022-12-25T02:25:52.491Z,250
2022-12-25T02:26:24.331Z,250
2022-12-25T02:26:41.550Z,250
2022-12-25T02:27:13.001Z,250
2022-12-25T02:27:34.214Z,250
2022-12-25T02:28:00.323Z,250
2022-12-25T02:28:32.468Z,250
2022-12-25T02:29:04.586Z,250
2022-12-25T02:29:33.994Z,250
2022-12-25T02:29:52.284Z,250
2022-12-25T02:30:25.268Z,250
2022-12-25T02:30:41.868Z,250
2022-12-25T02:31:12.349Z,250
2022-12-25T02:31:34.348Z,250
2022-12-25T02:32:00.437Z,250
2022-12-25T02:32:33.156Z,250
2022-12-25T02:33:04.388Z,250
2022-12-25T02:33:34.999Z,250
2022-12-25T02:33:52.362Z,250
2022-12-25T02:34:24.374Z,250
2022-12-25T02:34:42.061Z,250
2022-12-25T02:35:12.433Z,250
2022-12-25T02:35:34.136Z,250
2022-12-25T02:36:00.433Z,250
2022-12-25T02:36:32.385Z,250
2022-12-25T02:37:21.496Z,250
2022-12-25T02:37:38.673Z,250
2022-12-25T02:38:08.433Z,250
2022-12-25T02:38:34.031Z,250
2022-12-25T02:38:56.377Z,250
2022-12-25T02:39:29.250Z,250
2022-12-25T02:40:00.668Z,250
2022-12-25T02:40:33.436Z,250
2022-12-25T02:41:04.280Z,250
2022-12-25T02:41:34.642Z,250
2022-12-25T02:41:52.368Z,250
2022-12-25T02:42:24.436Z,250
2022-12-25T02:42:42.141Z,250
2022-12-25T02:43:12.290Z,250
2022-12-25T02:43:33.962Z,250
2022-12-25T02:44:00.562Z,250
2022-12-25T02:44:32.419Z,250
2022-12-25T02:45:06.157Z,250
2022-12-25T02:45:34.154Z,250
2022-12-25T02:45:52.735Z,250
2022-12-25T02:46:24.415Z,250
2022-12-25T02:46:41.440Z,250
2022-12-25T02:47:13.096Z,250
2022-12-25T02:47:34.007Z,250
2022-12-25T02:48:00.561Z,250
2022-12-25T02:48:32.284Z,250
2022-12-25T02:49:04.965Z,250
2022-12-25T02:49:34.131Z,250
2022-12-25T02:49:52.418Z,250
2022-12-25T02:50:24.567Z,250
2022-12-25T02:50:41.541Z,250
2022-12-25T02:51:13.079Z,250
2022-12-25T02:51:34.035Z,250
2022-12-25T02:52:00.460Z,250
2022-12-25T02:52:32.471Z,250
2022-12-25T02:53:04.416Z,250
2022-12-25T02:53:34.080Z,250
2022-12-25T02:53:52.408Z,250
2022-12-25T02:54:25.143Z,250
2022-12-25T02:54:42.002Z,250
2022-12-25T02:55:12.590Z,250
2022-12-25T02:55:34.143Z,250
2022-12-25T02:56:00.440Z,250
2022-12-25T02:56:33.070Z,250
2022-12-25T02:57:04.435Z,250
2022-12-25T02:57:35.856Z,250
2022-12-25T02:57:52.289Z,250
2022-12-25T02:58:27.583Z,250
2022-12-25T02:58:56.369Z,250
2022-12-25T02:59:28.535Z,250
2022-12-25T03:00:01.755Z,250
2022-12-25T03:00:32.463Z,250
2022-12-25T03:01:05.199Z,250
2022-12-25T03:01:34.637Z,250
2022-12-25T03:01:52.445Z,250
2022-12-25T03:02:24.480Z,250
2022-12-25T03:02:56.450Z,250
2022-12-25T03:03:28.478Z,250
2022-12-25T03:04:00.492Z,250
2022-12-25T03:04:32.410Z,226
2022-12-25T03:05:04.458Z,224
2022-12-25T03:05:34.035Z,224
2022-12-25T03:05:52.593Z,259
2022-12-25T03:06:24.912Z,271
2022-12-25T03:06:56.410Z,276
2022-12-25T03:07:29.334Z,276
2022-12-25T03:08:00.535Z,276
2022-12-25T03:08:33.020Z,276
2022-12-25T03:09:04.329Z,276
2022-12-25T03:09:34.903Z,276
2022-12-25T03:09:52.419Z,291
2022-12-25T03:10:24.564Z,291
2022-12-25T03:10:42.117Z,291
2022-12-25T03:11:12.318Z,291
2022-12-25T03:11:34.020Z,291
2022-12-25T03:12:00.445Z,291
2022-12-25T03:12:32.350Z,248
2022-12-25T03:13:17.816Z,248
2022-12-25T03:13:36.901Z,248
2022-12-25T03:14:08.374Z,248
2022-12-25T03:14:34.056Z,248
2022-12-25T03:14:56.301Z,218
2022-12-25T03:15:29.590Z,217
2022-12-25T03:16:00.430Z,218
2022-12-25T03:16:34.167Z,218
2022-12-25T03:17:04.372Z,251
2022-12-25T03:17:35.440Z,247
2022-12-25T03:18:08.398Z,247
2022-12-25T03:18:33.922Z,247
2022-12-25T03:18:56.340Z,247
2022-12-25T03:19:28.600Z,209
2022-12-25T03:20:01.091Z,231
2022-12-25T03:20:32.306Z,280
2022-12-25T03:21:05.080Z,280
2022-12-25T03:21:34.055Z,280
2022-12-25T03:21:52.415Z,248
2022-12-25T03:22:24.298Z,248
2022-12-25T03:22:41.421Z,248
2022-12-25T03:23:12.906Z,302
2022-12-25T03:23:34.069Z,235
2022-12-25T03:24:00.488Z,235
2022-12-25T03:24:32.287Z,213
2022-12-25T03:25:04.604Z,213
2022-12-25T03:25:34.637Z,290
2022-12-25T03:25:52.431Z,265
2022-12-25T03:26:25.133Z,230
2022-12-25T03:26:41.951Z,290
2022-12-25T03:27:12.460Z,280
2022-12-25T03:27:34.061Z,97
2022-12-25T03:28:00.370Z,154
2022-12-25T03:28:33.118Z,154
2022-12-25T03:29:04.448Z,155
2022-12-25T03:29:34.997Z,155
2022-12-25T03:29:52.323Z,156
2022-12-25T03:30:24.623Z,160
2022-12-25T03:30:42.303Z,160
2022-12-25T03:31:12.667Z,161
2022-12-25T03:31:34.125Z,161
2022-12-25T03:32:00.367Z,160
2022-12-25T03:32:32.438Z,160
2022-12-25T03:33:23.276Z,237
2022-12-25T03:33:52.289Z,286
2022-12-25T03:34:24.473Z,221
2022-12-25T03:34:41.501Z,248
2022-12-25T03:35:13.361Z,254
2022-12-25T03:35:34.148Z,254
2022-12-25T03:36:00.326Z,241
2022-12-25T03:36:32.418Z,251
2022-12-25T03:37:04.428Z,257
2022-12-25T03:37:34.154Z,266
2022-12-25T03:37:52.365Z,281
2022-12-25T03:38:25.118Z,281
2022-12-25T03:38:41.916Z,282
2022-12-25T03:39:12.391Z,216
2022-12-25T03:39:34.108Z,203
2022-12-25T03:40:00.519Z,269
2022-12-25T03:40:33.074Z,285
2022-12-25T03:41:04.309Z,257
2022-12-25T03:41:34.878Z,258
2022-12-25T03:41:52.354Z,258
2022-12-25T03:42:24.405Z,258
2022-12-25T03:42:42.198Z,258
2022-12-25T03:43:12.315Z,258
2022-12-25T03:43:33.964Z,258
2022-12-25T03:44:00.680Z,258
2022-12-25T03:44:32.444Z,277
2022-12-25T03:45:05.259Z,277
2022-12-25T03:45:34.336Z,277
2022-12-25T03:45:52.531Z,272
2022-12-25T03:46:24.535Z,185
2022-12-25T03:46:41.690Z,187
2022-12-25T03:47:13.109Z,238
2022-12-25T03:47:34.297Z,267
2022-12-25T03:48:00.487Z,277
2022-12-25T03:48:32.337Z,277
2022-12-25T03:49:04.323Z,268
2022-12-25T03:49:34.115Z,258
2022-12-25T03:49:52.390Z,271
2022-12-25T03:50:25.300Z,277
2022-12-25T03:50:41.805Z,277
2022-12-25T03:51:12.370Z,277
2022-12-25T03:51:34.077Z,277
2022-12-25T03:52:00.461Z,277
2022-12-25T03:52:33.147Z,277
2022-12-25T03:53:04.436Z,277
2022-12-25T03:53:34.784Z,277
2022-12-25T03:53:52.426Z,277
2022-12-25T03:54:24.362Z,277
2022-12-25T03:54:42.302Z,277
2022-12-25T03:55:12.546Z,277
2022-12-25T03:55:34.247Z,277
2022-12-25T03:56:00.456Z,277
2022-12-25T03:56:32.291Z,277
2022-12-25T03:57:05.136Z,278
2022-12-25T03:57:34.035Z,278
2022-12-25T03:57:52.292Z,254
2022-12-25T03:58:24.341Z,254
2022-12-25T03:58:41.518Z,254
2022-12-25T03:59:16.582Z,254
2022-12-25T03:59:34.586Z,254
2022-12-25T04:00:00.561Z,254
2022-12-25T04:00:32.426Z,254
2022-12-25T04:01:04.429Z,248
2022-12-25T04:01:34.172Z,254
2022-12-25T04:01:52.440Z,252
2022-12-25T04:02:25.368Z,254
2022-12-25T04:02:42.205Z,249
2022-12-25T04:03:12.350Z,261
2022-12-25T04:03:34.241Z,184
2022-12-25T04:04:00.527Z,254
2022-12-25T04:04:33.222Z,283
2022-12-25T04:05:04.627Z,282
2022-12-25T04:05:34.918Z,282
2022-12-25T04:05:52.470Z,282
2022-12-25T04:06:24.432Z,282
2022-12-25T04:06:42.013Z,282
2022-12-25T04:07:12.390Z,282
2022-12-25T04:07:34.216Z,282
2022-12-25T04:08:00.396Z,282
2022-12-25T04:08:32.383Z,286
2022-12-25T04:09:05.014Z,286
2022-12-25T04:09:34.573Z,286
2022-12-25T04:09:52.423Z,254
2022-12-25T04:10:24.615Z,266
2022-12-25T04:10:41.572Z,266
2022-12-25T04:11:13.094Z,277
2022-12-25T04:11:34.078Z,283
2022-12-25T04:12:02.557Z,295
2022-12-25T04:12:32.480Z,286
2022-12-25T04:13:04.493Z,276
2022-12-25T04:13:34.167Z,276
2022-12-25T04:13:52.365Z,276
2022-12-25T04:14:25.239Z,276
2022-12-25T04:14:57.372Z,276
2022-12-25T04:15:30.502Z,289
2022-12-25T04:16:00.670Z,289
2022-12-25T04:16:33.060Z,289
2022-12-25T04:17:04.296Z,289
2022-12-25T04:17:35.934Z,289
2022-12-25T04:17:52.377Z,289
2022-12-25T04:18:24.453Z,289
2022-12-25T04:18:42.154Z,276
2022-12-25T04:19:12.306Z,200
2022-12-25T04:19:34.038Z,209
2022-12-25T04:20:00.560Z,305
2022-12-25T04:20:32.448Z,249
2022-12-25T04:21:05.168Z,101
2022-12-25T04:21:34.154Z,101
2022-12-25T04:21:52.427Z,102
2022-12-25T04:22:24.396Z,102
2022-12-25T04:22:41.472Z,101
2022-12-25T04:23:13.227Z,192
2022-12-25T04:23:34.779Z,221
2022-12-25T04:24:06.199Z,238
2022-12-25T04:24:32.299Z,270
2022-12-25T04:25:04.618Z,280
2022-12-25T04:25:35.043Z,97
2022-12-25T04:25:52.563Z,280
2022-12-25T04:26:24.329Z,215
2022-12-25T04:26:42.130Z,249
2022-12-25T04:27:12.349Z,192
2022-12-25T04:27:34.129Z,233
2022-12-25T04:28:00.497Z,264
2022-12-25T04:28:32.304Z,279
2022-12-25T04:29:05.004Z,173
2022-12-25T04:29:34.139Z,179
2022-12-25T04:30:06.428Z,236
2022-12-25T04:30:24.313Z,202
2022-12-25T04:30:41.520Z,203
2022-12-25T04:31:12.490Z,201
2022-12-25T04:31:34.248Z,196
2022-12-25T04:32:00.436Z,195
2022-12-25T04:32:33.180Z,192
2022-12-25T04:33:04.378Z,254
2022-12-25T04:33:34.955Z,279
2022-12-25T04:33:52.535Z,204
2022-12-25T04:34:24.368Z,194
2022-12-25T04:34:42.247Z,226
2022-12-25T04:35:12.521Z,234
2022-12-25T04:35:34.194Z,209
2022-12-25T04:36:00.344Z,280
2022-12-25T04:36:32.400Z,198
2022-12-25T04:37:14.982Z,197
2022-12-25T04:37:33.993Z,197
2022-12-25T04:37:52.339Z,43
2022-12-25T04:38:25.142Z,47
2022-12-25T04:38:41.908Z,60
2022-12-25T04:39:12.432Z,28
2022-12-25T04:39:34.133Z,293
2022-12-25T04:40:01.047Z,291
2022-12-25T04:40:33.123Z,264
2022-12-25T04:41:04.410Z,174
2022-12-25T04:41:34.997Z,174
2022-12-25T04:42:08.310Z,172
2022-12-25T04:42:34.054Z,172
2022-12-25T04:42:56.445Z,173
2022-12-25T04:43:28.493Z,243
2022-12-25T04:44:01.199Z,277
2022-12-25T04:44:32.440Z,324
2022-12-25T04:45:05.232Z,250
2022-12-25T04:45:34.170Z,200
2022-12-25T04:45:52.571Z,200
2022-12-25T04:46:24.485Z,328
2022-12-25T04:46:41.613Z,305
2022-12-25T04:47:13.021Z,229
2022-12-25T04:47:34.368Z,296
2022-12-25T04:48:00.452Z,281
2022-12-25T04:48:32.472Z,289
2022-12-25T04:49:05.100Z,53
2022-12-25T04:49:34.187Z,37
2022-12-25T04:49:52.373Z,110
2022-12-25T04:50:24.602Z,296
2022-12-25T04:50:41.593Z,295
2022-12-25T04:51:13.140Z,297
2022-12-25T04:51:34.074Z,292
2022-12-25T04:52:00.439Z,277
2022-12-25T04:52:32.535Z,274
2022-12-25T04:53:04.416Z,227
2022-12-25T04:53:34.126Z,233
2022-12-25T04:53:52.443Z,274
2022-12-25T04:54:24.996Z,290
2022-12-25T04:54:41.966Z,260
2022-12-25T04:55:12.390Z,356
2022-12-25T04:55:34.736Z,60
2022-12-25T04:56:00.477Z,93
2022-12-25T04:56:33.040Z,340
2022-12-25T04:57:04.277Z,340
2022-12-25T04:57:35.554Z,340
2022-12-25T04:58:08.400Z,340
2022-12-25T04:58:33.930Z,340
2022-12-25T04:58:56.303Z,340
2022-12-25T04:59:28.469Z,340
2022-12-25T05:00:01.391Z,90
2022-12-25T05:00:32.342Z,2
2022-12-25T05:01:05.119Z,24
2022-12-25T05:01:34.261Z,13
2022-12-25T05:01:52.517Z,317
2022-12-25T05:02:24.525Z,313
2022-12-25T05:02:41.722Z,313
2022-12-25T05:03:13.311Z,317
2022-12-25T05:03:34.388Z,317
2022-12-25T05:04:00.430Z,320
2022-12-25T05:04:32.351Z,301
2022-12-25T05:05:04.568Z,302
2022-12-25T05:05:34.486Z,302
2022-12-25T05:05:52.642Z,302
2022-12-25T05:06:36.143Z,302
2022-12-25T05:06:56.392Z,286
2022-12-25T05:07:28.512Z,286
2022-12-25T05:08:00.333Z,285
2022-12-25T05:08:32.362Z,285
2022-12-25T05:09:04.418Z,285
2022-12-25T05:09:34.541Z,285
2022-12-25T05:09:53.087Z,285
2022-12-25T05:10:24.475Z,258
2022-12-25T05:10:41.484Z,2
2022-12-25T05:11:12.417Z,263
2022-12-25T05:11:34.153Z,198
2022-12-25T05:12:01.114Z,174
2022-12-25T05:12:32.491Z,174
2022-12-25T05:13:05.001Z,73
2022-12-25T05:13:34.100Z,133
2022-12-25T05:13:52.330Z,103
2022-12-25T05:14:24.398Z,52
2022-12-25T05:14:41.471Z,305
2022-12-25T05:15:13.247Z,311
2022-12-25T05:15:34.101Z,297
2022-12-25T05:16:00.572Z,300
2022-12-25T05:16:32.436Z,214
2022-12-25T05:17:04.415Z,123
2022-12-25T05:17:34.282Z,223
2022-12-25T05:17:52.317Z,264
2022-12-25T05:18:25.150Z,279
2022-12-25T05:18:41.935Z,254
2022-12-25T05:19:12.413Z,217
2022-12-25T05:19:34.091Z,217
2022-12-25T05:20:00.517Z,97
2022-12-25T05:20:39.582Z,35
2022-12-25T05:21:04.402Z,12
2022-12-25T05:21:35.076Z,13
2022-12-25T05:21:52.298Z,60
2022-12-25T05:22:24.492Z,282
2022-12-25T05:22:42.164Z,268
2022-12-25T05:23:12.452Z,268
2022-12-25T05:23:34.718Z,266
2022-12-25T05:24:00.449Z,278
2022-12-25T05:24:32.435Z,28
2022-12-25T05:25:06.098Z,28
2022-12-25T05:25:34.310Z,28
2022-12-25T05:25:52.498Z,50
2022-12-25T05:26:24.413Z,33
2022-12-25T05:26:41.553Z,33
2022-12-25T05:27:13.067Z,10
2022-12-25T05:27:34.017Z,10
2022-12-25T05:28:00.374Z,47
2022-12-25T05:28:32.416Z,51
2022-12-25T05:29:04.310Z,50
2022-12-25T05:29:34.489Z,50
2022-12-25T05:29:52.580Z,309
2022-12-25T05:30:25.233Z,309
2022-12-25T05:30:42.026Z,303
2022-12-25T05:31:12.496Z,62
2022-12-25T05:31:34.169Z,142
2022-12-25T05:32:00.492Z,113
2022-12-25T05:32:33.047Z,327
2022-12-25T05:33:04.400Z,344
2022-12-25T05:33:36.270Z,345
2022-12-25T05:34:08.462Z,278
2022-12-25T05:34:33.963Z,273
2022-12-25T05:34:56.281Z,306
2022-12-25T05:35:29.460Z,312
2022-12-25T05:36:01.259Z,42
2022-12-25T05:36:32.311Z,42
2022-12-25T05:37:05.038Z,52
2022-12-25T05:37:34.121Z,132
2022-12-25T05:37:52.427Z,296
2022-12-25T05:38:24.446Z,296
2022-12-25T05:38:43.745Z,296
2022-12-25T05:39:13.259Z,6
2022-12-25T05:39:34.764Z,6
2022-12-25T05:40:00.647Z,6
2022-12-25T05:40:32.468Z,5
2022-12-25T05:41:04.373Z,299
2022-12-25T05:41:35.003Z,299
2022-12-25T05:41:52.364Z,323
2022-12-25T05:42:25.042Z,323
2022-12-25T05:42:41.981Z,323
2022-12-25T05:43:12.379Z,323
2022-12-25T05:43:34.039Z,324
2022-12-25T05:44:00.525Z,327
2022-12-25T05:44:33.121Z,334
2022-12-25T05:45:04.769Z,357
2022-12-25T05:45:34.885Z,357
2022-12-25T05:45:52.557Z,357
2022-12-25T05:46:24.383Z,357
2022-12-25T05:46:42.322Z,357
2022-12-25T05:47:12.432Z,359
2022-12-25T05:47:34.190Z,2
2022-12-25T05:48:00.433Z,2
2022-12-25T05:48:32.352Z,2
2022-12-25T05:49:04.971Z,2
2022-12-25T05:49:34.194Z,2
2022-12-25T05:49:52.334Z,2
2022-12-25T05:50:24.456Z,42
2022-12-25T05:50:41.473Z,41
2022-12-25T05:51:13.023Z,41
2022-12-25T05:51:34.529Z,41
2022-12-25T05:52:00.345Z,41
2022-12-25T05:52:32.481Z,41
2022-12-25T05:53:08.078Z,41
2022-12-25T05:53:34.131Z,41
2022-12-25T05:53:52.296Z,22
2022-12-25T05:54:25.126Z,22
2022-12-25T05:54:41.922Z,22
2022-12-25T05:55:12.596Z,22
2022-12-25T05:55:34.539Z,22
2022-12-25T05:56:00.339Z,22
2022-12-25T05:56:33.079Z,13
2022-12-25T05:57:13.212Z,332
2022-12-25T05:57:34.770Z,331
2022-12-25T05:57:52.281Z,328
2022-12-25T05:58:24.484Z,13
2022-12-25T05:58:43.015Z,13
2022-12-25T05:59:13.830Z,13
2022-12-25T05:59:34.178Z,13
2022-12-25T06:00:00.633Z,13
2022-12-25T06:00:32.396Z,13
2022-12-25T06:01:05.043Z,13
2022-12-25T06:01:49.911Z,13
2022-12-25T06:02:09.735Z,19
2022-12-25T06:02:34.175Z,32
2022-12-25T06:02:56.649Z,32
2022-12-25T06:03:28.541Z,32
2022-12-25T06:04:00.663Z,32
2022-12-25T06:04:32.396Z,32
2022-12-25T06:05:04.482Z,42
2022-12-25T06:05:34.365Z,32
2022-12-25T06:05:52.528Z,21
2022-12-25T06:06:24.939Z,34
2022-12-25T06:06:56.350Z,34
2022-12-25T06:07:29.186Z,99
2022-12-25T06:08:00.405Z,52
2022-12-25T06:08:33.043Z,52
2022-12-25T06:09:04.366Z,52
2022-12-25T06:09:35.398Z,37
2022-12-25T06:10:08.533Z,37
2022-12-25T06:10:34.032Z,36
2022-12-25T06:10:56.450Z,1
2022-12-25T06:11:28.437Z,1
2022-12-25T06:12:01.016Z,6
2022-12-25T06:12:32.415Z,6
2022-12-25T06:13:21.195Z,6
2022-12-25T06:13:38.567Z,6
2022-12-25T06:14:08.411Z,6
2022-12-25T06:14:34.089Z,6
2022-12-25T06:14:56.338Z,6
2022-12-25T06:15:29.752Z,7
2022-12-25T06:16:00.591Z,7
2022-12-25T06:16:37.919Z,7
2022-12-25T06:17:04.469Z,7
2022-12-25T06:17:35.376Z,7
2022-12-25T06:18:08.411Z,6
2022-12-25T06:18:34.470Z,6
2022-12-25T06:18:57.176Z,6
2022-12-25T06:19:28.525Z,6